Webcam Flughafen St.Gallen-Altenrhein

Live-Bilder und Zeitraffer LSZR / ACH.

 

Live aus Altenrhein
LIVE
LSZR 231650Z 27004KT CAVOK 31/16 Q1018 NOSIG RMK M
Zeitraffer heute
2019-07-23 00:14:34
LSZR 222150Z AUTO 09005KT CAVOK 21/15 Q1023
Zeitraffer gestern
2019-07-22 00:13:51
LSZR 212150Z AUTO VRB01KT CAVOK 20/17 Q1024
Zeitraffer vor 3 Tagen
2019-07-20 00:14:32
LSZR 192150Z AUTO 13003KT CAVOK 20/13 Q1016